<?xml version="1.0" encoding="UTF-8"?><gpx xmlns="http://www.topografix.com/GPX/1/1" version="1.1" creator="iOrient"><trk><name>Квест "Код города"</name><trkseg><trkpt lat="56.8345654" lon="53.1273017"><time>2024-11-03T07:45:16.970</time></trkpt><trkpt lat="56.8345801" lon="53.1273248"><time>2024-11-03T07:45:18.180</time></trkpt><trkpt lat="56.8345793" lon="53.1272428"><time>2024-11-03T07:45:18.673</time></trkpt><trkpt lat="56.8345316" lon="53.1272266"><time>2024-11-03T07:45:26.687</time></trkpt><trkpt lat="56.8344870" lon="53.1272132"><time>2024-11-03T07:45:31.693</time></trkpt><trkpt lat="56.8344494" lon="53.1272757"><time>2024-11-03T07:45:36.697</time></trkpt><trkpt lat="56.8344134" lon="53.1273573"><time>2024-11-03T07:45:40.727</time></trkpt><trkpt lat="56.8343982" lon="53.1274382"><time>2024-11-03T07:45:43.680</time></trkpt><trkpt lat="56.8343879" lon="53.1275197"><time>2024-11-03T07:45:46.717</time></trkpt><trkpt lat="56.8344175" lon="53.1275843"><time>2024-11-03T07:45:50.680</time></trkpt><trkpt lat="56.8344045" lon="53.1276865"><time>2024-11-03T07:45:54.677</time></trkpt><trkpt lat="56.8343552" lon="53.1277379"><time>2024-11-03T07:45:57.680</time></trkpt><trkpt lat="56.8343010" lon="53.1277841"><time>2024-11-03T07:46:00.680</time></trkpt><trkpt lat="56.8342395" lon="53.1278333"><time>2024-11-03T07:46:03.690</time></trkpt><trkpt lat="56.8341821" lon="53.1278896"><time>2024-11-03T07:46:06.707</time></trkpt><trkpt lat="56.8341375" lon="53.1279521"><time>2024-11-03T07:46:09.687</time></trkpt><trkpt lat="56.8341025" lon="53.1280140"><time>2024-11-03T07:46:12.683</time></trkpt><trkpt lat="56.8340742" lon="53.1280789"><time>2024-11-03T07:46:15.680</time></trkpt><trkpt lat="56.8340407" lon="53.1281556"><time>2024-11-03T07:46:19.693</time></trkpt><trkpt lat="56.8340248" lon="53.1282553"><time>2024-11-03T07:46:23.687</time></trkpt><trkpt lat="56.8340380" lon="53.1283514"><time>2024-11-03T07:46:27.680</time></trkpt><trkpt lat="56.8340429" lon="53.1284350"><time>2024-11-03T07:46:30.680</time></trkpt><trkpt lat="56.8342563" lon="53.1297533"><time>2024-11-03T07:48:02.740</time></trkpt><trkpt lat="56.8343001" lon="53.1297561"><time>2024-11-03T07:48:03.880</time></trkpt><trkpt lat="56.8343519" lon="53.1297480"><time>2024-11-03T07:48:04.700</time></trkpt><trkpt lat="56.8344207" lon="53.1296995"><time>2024-11-03T07:48:07.680</time></trkpt><trkpt lat="56.8343726" lon="53.1297174"><time>2024-11-03T07:48:20.737</time></trkpt><trkpt lat="56.8344202" lon="53.1296803"><time>2024-11-03T07:48:40.740</time></trkpt><trkpt lat="56.8343873" lon="53.1296171"><time>2024-11-03T07:49:30.747</time></trkpt><trkpt lat="56.8344199" lon="53.1295368"><time>2024-11-03T07:49:40.683</time></trkpt><trkpt lat="56.8344617" lon="53.1294710"><time>2024-11-03T07:49:44.683</time></trkpt><trkpt lat="56.8344635" lon="53.1293829"><time>2024-11-03T07:49:49.697</time></trkpt><trkpt lat="56.8344556" lon="53.1293961"><time>2024-11-03T07:50:19.900</time></trkpt><trkpt lat="56.8344732" lon="53.1294641"><time>2024-11-03T07:50:50.763</time></trkpt><trkpt lat="56.8344737" lon="53.1295067"><time>2024-11-03T07:50:51.910</time></trkpt><trkpt lat="56.8345038" lon="53.1295943"><time>2024-11-03T07:50:55.693</time></trkpt><trkpt lat="56.8345295" lon="53.1296683"><time>2024-11-03T07:50:58.707</time></trkpt><trkpt lat="56.8345753" lon="53.1297193"><time>2024-11-03T07:51:02.670</time></trkpt><trkpt lat="56.8346315" lon="53.1296943"><time>2024-11-03T07:51:06.687</time></trkpt><trkpt lat="56.8346769" lon="53.1297363"><time>2024-11-03T07:51:11.690</time></trkpt><trkpt lat="56.8347118" lon="53.1297962"><time>2024-11-03T07:51:16.727</time></trkpt><trkpt lat="56.8347250" lon="53.1298804"><time>2024-11-03T07:51:20.690</time></trkpt><trkpt lat="56.8347577" lon="53.1299559"><time>2024-11-03T07:51:24.670</time></trkpt><trkpt lat="56.8367332" lon="53.1333377"><time>2024-11-03T07:55:43.677</time></trkpt><trkpt lat="56.8367774" lon="53.1332860"><time>2024-11-03T07:55:46.673</time></trkpt><trkpt lat="56.8368102" lon="53.1331696"><time>2024-11-03T07:55:51.677</time></trkpt><trkpt lat="56.8368382" lon="53.1331002"><time>2024-11-03T07:56:06.713</time></trkpt><trkpt lat="56.8368967" lon="53.1330993"><time>2024-11-03T07:56:10.697</time></trkpt><trkpt lat="56.8369575" lon="53.1331110"><time>2024-11-03T07:56:14.763</time></trkpt><trkpt lat="56.8369811" lon="53.1331163"><time>2024-11-03T07:56:15.693</time></trkpt><trkpt lat="56.8370346" lon="53.1331308"><time>2024-11-03T07:56:17.670</time></trkpt><trkpt lat="56.8370956" lon="53.1331377"><time>2024-11-03T07:56:20.723</time></trkpt><trkpt lat="56.8371424" lon="53.1331219"><time>2024-11-03T07:56:23.697</time></trkpt><trkpt lat="56.8371921" lon="53.1331270"><time>2024-11-03T07:56:27.760</time></trkpt><trkpt lat="56.8372433" lon="53.1331542"><time>2024-11-03T07:56:31.687</time></trkpt><trkpt lat="56.8372877" lon="53.1331793"><time>2024-11-03T07:56:34.687</time></trkpt><trkpt lat="56.8373370" lon="53.1331826"><time>2024-11-03T07:56:37.687</time></trkpt><trkpt lat="56.8373955" lon="53.1331499"><time>2024-11-03T07:56:40.713</time></trkpt><trkpt lat="56.8373946" lon="53.1331262"><time>2024-11-03T07:56:41.857</time></trkpt><trkpt lat="56.8374400" lon="53.1330765"><time>2024-11-03T07:56:47.687</time></trkpt><trkpt lat="56.8375934" lon="53.1330946"><time>2024-11-03T07:57:06.673</time></trkpt><trkpt lat="56.8376507" lon="53.1329995"><time>2024-11-03T07:57:07.680</time></trkpt><trkpt lat="56.8375805" lon="53.1330289"><time>2024-11-03T07:57:10.687</time></trkpt><trkpt lat="56.8375553" lon="53.1330039"><time>2024-11-03T07:57:14.333</time></trkpt><trkpt lat="56.8375333" lon="53.1330015"><time>2024-11-03T07:57:16.717</time></trkpt><trkpt lat="56.8375353" lon="53.1330003"><time>2024-11-03T07:57:17.973</time></trkpt><trkpt lat="56.8374836" lon="53.1330052"><time>2024-11-03T07:58:11.713</time></trkpt><trkpt lat="56.8371198" lon="53.1363300"><time>2024-11-03T08:02:25.730</time></trkpt><trkpt lat="56.8371031" lon="53.1362863"><time>2024-11-03T08:02:32.673</time></trkpt><trkpt lat="56.8370525" lon="53.1362692"><time>2024-11-03T08:02:37.683</time></trkpt><trkpt lat="56.8370079" lon="53.1362941"><time>2024-11-03T08:02:44.687</time></trkpt><trkpt lat="56.8355796" lon="53.1375957"><time>2024-11-03T08:08:51.743</time></trkpt><trkpt lat="56.8355796" lon="53.1375957"><time>2024-11-03T08:08:53.503</time></trkpt><trkpt lat="56.8355407" lon="53.1375289"><time>2024-11-03T08:08:53.873</time></trkpt><trkpt lat="56.8355331" lon="53.1375185"><time>2024-11-03T08:08:55.067</time></trkpt><trkpt lat="56.8355717" lon="53.1375722"><time>2024-11-03T08:09:30.690</time></trkpt><trkpt lat="56.8356193" lon="53.1376047"><time>2024-11-03T08:09:32.677</time></trkpt><trkpt lat="56.8356648" lon="53.1376517"><time>2024-11-03T08:09:35.687</time></trkpt><trkpt lat="56.8357026" lon="53.1377146"><time>2024-11-03T08:09:38.727</time></trkpt><trkpt lat="56.8357512" lon="53.1377435"><time>2024-11-03T08:09:41.727</time></trkpt><trkpt lat="56.8358011" lon="53.1377586"><time>2024-11-03T08:09:44.723</time></trkpt><trkpt lat="56.8358483" lon="53.1377698"><time>2024-11-03T08:09:46.693</time></trkpt><trkpt lat="56.8358933" lon="53.1377948"><time>2024-11-03T08:09:48.703</time></trkpt><trkpt lat="56.8359512" lon="53.1378342"><time>2024-11-03T08:09:51.683</time></trkpt><trkpt lat="56.8359982" lon="53.1378590"><time>2024-11-03T08:09:54.697</time></trkpt><trkpt lat="56.8380014" lon="53.1429371"><time>2024-11-03T08:14:29.713</time></trkpt><trkpt lat="56.8380170" lon="53.1429273"><time>2024-11-03T08:14:30.987</time></trkpt><trkpt lat="56.8380415" lon="53.1428992"><time>2024-11-03T08:14:36.997</time></trkpt><trkpt lat="56.8380632" lon="53.1428942"><time>2024-11-03T08:14:42.723</time></trkpt><trkpt lat="56.8380656" lon="53.1428973"><time>2024-11-03T08:14:43.843</time></trkpt><trkpt lat="56.8381117" lon="53.1429043"><time>2024-11-03T08:15:19.720</time></trkpt><trkpt lat="56.8381025" lon="53.1430054"><time>2024-11-03T08:15:24.680</time></trkpt><trkpt lat="56.8380967" lon="53.1430867"><time>2024-11-03T08:15:27.687</time></trkpt><trkpt lat="56.8380751" lon="53.1431777"><time>2024-11-03T08:15:30.690</time></trkpt><trkpt lat="56.8380573" lon="53.1432630"><time>2024-11-03T08:15:33.690</time></trkpt><trkpt lat="56.8380164" lon="53.1433208"><time>2024-11-03T08:15:36.693</time></trkpt><trkpt lat="56.8379766" lon="53.1433718"><time>2024-11-03T08:15:39.690</time></trkpt><trkpt lat="56.8379215" lon="53.1433781"><time>2024-11-03T08:15:43.700</time></trkpt><trkpt lat="56.8332861" lon="53.1435746"><time>2024-11-03T08:24:42.740</time></trkpt><trkpt lat="56.8333125" lon="53.1436163"><time>2024-11-03T08:24:43.977</time></trkpt><trkpt lat="56.8333125" lon="53.1436163"><time>2024-11-03T08:24:44.503</time></trkpt><trkpt lat="56.8332771" lon="53.1435466"><time>2024-11-03T08:24:49.733</time></trkpt><trkpt lat="56.8332662" lon="53.1435595"><time>2024-11-03T08:24:50.900</time></trkpt><trkpt lat="56.8332083" lon="53.1435836"><time>2024-11-03T08:24:53.700</time></trkpt><trkpt lat="56.8331582" lon="53.1435801"><time>2024-11-03T08:24:56.690</time></trkpt><trkpt lat="56.8331113" lon="53.1436080"><time>2024-11-03T08:25:00.687</time></trkpt><trkpt lat="56.8330546" lon="53.1436416"><time>2024-11-03T08:25:04.713</time></trkpt><trkpt lat="56.8330232" lon="53.1437076"><time>2024-11-03T08:25:07.687</time></trkpt><trkpt lat="56.8330142" lon="53.1437971"><time>2024-11-03T08:25:10.677</time></trkpt><trkpt lat="56.8330258" lon="53.1438859"><time>2024-11-03T08:25:13.690</time></trkpt><trkpt lat="56.8330371" lon="53.1439698"><time>2024-11-03T08:25:16.690</time></trkpt><trkpt lat="56.8330379" lon="53.1440562"><time>2024-11-03T08:25:19.693</time></trkpt><trkpt lat="56.8330535" lon="53.1441455"><time>2024-11-03T08:25:22.690</time></trkpt><trkpt lat="56.8330612" lon="53.1442347"><time>2024-11-03T08:25:25.693</time></trkpt><trkpt lat="56.8330711" lon="53.1443224"><time>2024-11-03T08:25:28.703</time></trkpt><trkpt lat="56.8330824" lon="53.1444025"><time>2024-11-03T08:25:31.677</time></trkpt><trkpt lat="56.8330922" lon="53.1444910"><time>2024-11-03T08:25:34.700</time></trkpt><trkpt lat="56.8330835" lon="53.1445793"><time>2024-11-03T08:25:37.737</time></trkpt><trkpt lat="56.8330888" lon="53.1446815"><time>2024-11-03T08:25:41.703</time></trkpt><trkpt lat="56.8331128" lon="53.1447758"><time>2024-11-03T08:25:45.737</time></trkpt><trkpt lat="56.8335005" lon="53.1533543"><time>2024-11-03T08:38:33.253</time></trkpt><trkpt lat="56.8334871" lon="53.1533578"><time>2024-11-03T08:38:34.320</time></trkpt><trkpt lat="56.8334719" lon="53.1533596"><time>2024-11-03T08:38:38.860</time></trkpt><trkpt lat="56.8334373" lon="53.1533363"><time>2024-11-03T08:38:50.740</time></trkpt><trkpt lat="56.8334268" lon="53.1533304"><time>2024-11-03T08:38:51.807</time></trkpt><trkpt lat="56.8333904" lon="53.1532694"><time>2024-11-03T08:39:19.730</time></trkpt><trkpt lat="56.8333580" lon="53.1532109"><time>2024-11-03T08:39:24.693</time></trkpt><trkpt lat="56.8333248" lon="53.1531448"><time>2024-11-03T08:39:28.693</time></trkpt><trkpt lat="56.8332737" lon="53.1531332"><time>2024-11-03T08:39:32.680</time></trkpt><trkpt lat="56.8332299" lon="53.1531128"><time>2024-11-03T08:39:35.693</time></trkpt><trkpt lat="56.8331755" lon="53.1530779"><time>2024-11-03T08:39:39.687</time></trkpt><trkpt lat="56.8314691" lon="53.1504054"><time>2024-11-03T08:43:07.723</time></trkpt><trkpt lat="56.8314658" lon="53.1504038"><time>2024-11-03T08:43:09.690</time></trkpt><trkpt lat="56.8314478" lon="53.1504879"><time>2024-11-03T08:43:14.690</time></trkpt><trkpt lat="56.8314826" lon="53.1504146"><time>2024-11-03T08:43:33.813</time></trkpt><trkpt lat="56.8283351" lon="53.1482870"><time>2024-11-03T08:51:26.693</time></trkpt><trkpt lat="56.8283329" lon="53.1482863"><time>2024-11-03T08:51:30.213</time></trkpt><trkpt lat="56.8282913" lon="53.1483197"><time>2024-11-03T08:52:19.740</time></trkpt><trkpt lat="56.8282626" lon="53.1483446"><time>2024-11-03T08:52:20.887</time></trkpt><trkpt lat="56.8282194" lon="53.1482826"><time>2024-11-03T08:52:23.697</time></trkpt><trkpt lat="56.8281724" lon="53.1482621"><time>2024-11-03T08:52:26.700</time></trkpt><trkpt lat="56.8281208" lon="53.1482541"><time>2024-11-03T08:52:29.687</time></trkpt><trkpt lat="56.8280746" lon="53.1482529"><time>2024-11-03T08:52:32.700</time></trkpt><trkpt lat="56.8277103" lon="53.1418313"><time>2024-11-03T08:58:53.757</time></trkpt><trkpt lat="56.8276616" lon="53.1418141"><time>2024-11-03T08:58:55.687</time></trkpt><trkpt lat="56.8276424" lon="53.1418130"><time>2024-11-03T08:58:57.357</time></trkpt><trkpt lat="56.8276024" lon="53.1417942"><time>2024-11-03T08:58:58.727</time></trkpt><trkpt lat="56.8275914" lon="53.1417882"><time>2024-11-03T08:58:59.897</time></trkpt><trkpt lat="56.8275617" lon="53.1417104"><time>2024-11-03T08:59:04.703</time></trkpt><trkpt lat="56.8275219" lon="53.1417651"><time>2024-11-03T08:59:11.703</time></trkpt><trkpt lat="56.8274997" lon="53.1418556"><time>2024-11-03T08:59:16.700</time></trkpt><trkpt lat="56.8274535" lon="53.1418766"><time>2024-11-03T08:59:19.730</time></trkpt><trkpt lat="56.8274033" lon="53.1419219"><time>2024-11-03T08:59:22.703</time></trkpt><trkpt lat="56.8273484" lon="53.1419279"><time>2024-11-03T08:59:25.703</time></trkpt><trkpt lat="56.8272989" lon="53.1419548"><time>2024-11-03T08:59:29.703</time></trkpt><trkpt lat="56.8272536" lon="53.1419967"><time>2024-11-03T08:59:33.703</time></trkpt><trkpt lat="56.8272115" lon="53.1420268"><time>2024-11-03T08:59:36.733</time></trkpt><trkpt lat="56.8271654" lon="53.1420478"><time>2024-11-03T08:59:39.700</time></trkpt><trkpt lat="56.8271464" lon="53.1421467"><time>2024-11-03T08:59:43.727</time></trkpt><trkpt lat="56.8271734" lon="53.1422433"><time>2024-11-03T08:59:47.740</time></trkpt><trkpt lat="56.8271814" lon="53.1423343"><time>2024-11-03T08:59:50.693</time></trkpt><trkpt lat="56.8271790" lon="53.1424333"><time>2024-11-03T08:59:53.747</time></trkpt><trkpt lat="56.8271627" lon="53.1425117"><time>2024-11-03T08:59:56.697</time></trkpt><trkpt lat="56.8271335" lon="53.1425885"><time>2024-11-03T08:59:59.733</time></trkpt><trkpt lat="56.8254632" lon="53.1411382"><time>2024-11-03T09:03:19.727</time></trkpt><trkpt lat="56.8253950" lon="53.1411203"><time>2024-11-03T09:03:22.050</time></trkpt><trkpt lat="56.8253445" lon="53.1411269"><time>2024-11-03T09:04:00.760</time></trkpt><trkpt lat="56.8252879" lon="53.1411290"><time>2024-11-03T09:04:04.740</time></trkpt><trkpt lat="56.8252382" lon="53.1411019"><time>2024-11-03T09:04:08.777</time></trkpt><trkpt lat="56.8251845" lon="53.1410903"><time>2024-11-03T09:04:11.740</time></trkpt><trkpt lat="56.8251381" lon="53.1411127"><time>2024-11-03T09:04:14.700</time></trkpt><trkpt lat="56.8250817" lon="53.1411276"><time>2024-11-03T09:04:18.703</time></trkpt><trkpt lat="56.8250260" lon="53.1411095"><time>2024-11-03T09:04:22.710</time></trkpt><trkpt lat="56.8233496" lon="53.1395217"><time>2024-11-03T09:09:18.727</time></trkpt><trkpt lat="56.8233496" lon="53.1395217"><time>2024-11-03T09:09:19.057</time></trkpt><trkpt lat="56.8233082" lon="53.1395898"><time>2024-11-03T09:09:19.993</time></trkpt><trkpt lat="56.8233162" lon="53.1395556"><time>2024-11-03T09:09:21.270</time></trkpt><trkpt lat="56.8233582" lon="53.1395086"><time>2024-11-03T09:09:25.700</time></trkpt><trkpt lat="56.8234058" lon="53.1394827"><time>2024-11-03T09:09:30.693</time></trkpt><trkpt lat="56.8234175" lon="53.1393996"><time>2024-11-03T09:10:14.740</time></trkpt><trkpt lat="56.8205813" lon="53.1394843"><time>2024-11-03T09:17:52.727</time></trkpt><trkpt lat="56.8205798" lon="53.1395456"><time>2024-11-03T09:17:54.697</time></trkpt><trkpt lat="56.8206042" lon="53.1395000"><time>2024-11-03T09:17:58.057</time></trkpt><trkpt lat="56.8205917" lon="53.1394640"><time>2024-11-03T09:17:59.723</time></trkpt><trkpt lat="56.8205845" lon="53.1394573"><time>2024-11-03T09:18:00.820</time></trkpt><trkpt lat="56.8205389" lon="53.1394522"><time>2024-11-03T09:18:04.693</time></trkpt><trkpt lat="56.8204945" lon="53.1394711"><time>2024-11-03T09:18:09.703</time></trkpt><trkpt lat="56.8204703" lon="53.1393940"><time>2024-11-03T09:18:24.693</time></trkpt><trkpt lat="56.8204657" lon="53.1393058"><time>2024-11-03T09:18:28.703</time></trkpt><trkpt lat="56.8204815" lon="53.1392173"><time>2024-11-03T09:18:32.733</time></trkpt><trkpt lat="56.8204809" lon="53.1391133"><time>2024-11-03T09:18:36.707</time></trkpt><trkpt lat="56.8204683" lon="53.1390298"><time>2024-11-03T09:18:39.710</time></trkpt><trkpt lat="56.8204881" lon="53.1389324"><time>2024-11-03T09:18:43.717</time></trkpt><trkpt lat="56.8204963" lon="53.1388498"><time>2024-11-03T09:18:46.693</time></trkpt><trkpt lat="56.8205041" lon="53.1387598"><time>2024-11-03T09:18:50.707</time></trkpt><trkpt lat="56.8205261" lon="53.1386571"><time>2024-11-03T09:18:54.703</time></trkpt><trkpt lat="56.8205284" lon="53.1385573"><time>2024-11-03T09:18:57.690</time></trkpt><trkpt lat="56.8205671" lon="53.1385091"><time>2024-11-03T09:19:00.710</time></trkpt><trkpt lat="56.8223398" lon="53.1346712"><time>2024-11-03T09:23:37.777</time></trkpt><trkpt lat="56.8221435" lon="53.1345461"><time>2024-11-03T09:23:38.870</time></trkpt><trkpt lat="56.8221773" lon="53.1345643"><time>2024-11-03T09:23:40.410</time></trkpt><trkpt lat="56.8221973" lon="53.1345743"><time>2024-11-03T09:23:40.807</time></trkpt><trkpt lat="56.8221959" lon="53.1345789"><time>2024-11-03T09:23:42.123</time></trkpt><trkpt lat="56.8222422" lon="53.1345811"><time>2024-11-03T09:23:48.710</time></trkpt><trkpt lat="56.8222995" lon="53.1345658"><time>2024-11-03T09:24:40.730</time></trkpt><trkpt lat="56.8223561" lon="53.1345483"><time>2024-11-03T09:24:43.710</time></trkpt><trkpt lat="56.8252649" lon="53.1320793"><time>2024-11-03T09:30:03.723</time></trkpt><trkpt lat="56.8253246" lon="53.1321370"><time>2024-11-03T09:30:05.700</time></trkpt><trkpt lat="56.8252760" lon="53.1322007"><time>2024-11-03T09:30:06.697</time></trkpt><trkpt lat="56.8252397" lon="53.1321725"><time>2024-11-03T09:30:09.750</time></trkpt><trkpt lat="56.8252268" lon="53.1321681"><time>2024-11-03T09:30:10.733</time></trkpt><trkpt lat="56.8252340" lon="53.1321350"><time>2024-11-03T09:30:11.910</time></trkpt><trkpt lat="56.8252821" lon="53.1320074"><time>2024-11-03T09:30:38.717</time></trkpt><trkpt lat="56.8253523" lon="53.1319629"><time>2024-11-03T09:30:40.710</time></trkpt><trkpt lat="56.8254132" lon="53.1319159"><time>2024-11-03T09:30:42.753</time></trkpt><trkpt lat="56.8254595" lon="53.1319624"><time>2024-11-03T09:30:50.707</time></trkpt><trkpt lat="56.8254871" lon="53.1320342"><time>2024-11-03T09:30:53.747</time></trkpt><trkpt lat="56.8255082" lon="53.1321335"><time>2024-11-03T09:30:56.710</time></trkpt><trkpt lat="56.8255161" lon="53.1322379"><time>2024-11-03T09:30:59.707</time></trkpt><trkpt lat="56.8255157" lon="53.1323312"><time>2024-11-03T09:31:02.717</time></trkpt><trkpt lat="56.8255197" lon="53.1324221"><time>2024-11-03T09:31:05.710</time></trkpt><trkpt lat="56.8255158" lon="53.1325100"><time>2024-11-03T09:31:08.753</time></trkpt><trkpt lat="56.8255090" lon="53.1326165"><time>2024-11-03T09:31:12.710</time></trkpt><trkpt lat="56.8278008" lon="53.1364747"><time>2024-11-03T09:36:35.757</time></trkpt><trkpt lat="56.8278455" lon="53.1363717"><time>2024-11-03T09:36:36.960</time></trkpt><trkpt lat="56.8278713" lon="53.1363177"><time>2024-11-03T09:36:40.070</time></trkpt><trkpt lat="56.8278798" lon="53.1363093"><time>2024-11-03T09:36:40.770</time></trkpt><trkpt lat="56.8278874" lon="53.1363052"><time>2024-11-03T09:36:41.997</time></trkpt><trkpt lat="56.8310270" lon="53.1390144"><time>2024-11-03T09:50:58.817</time></trkpt><trkpt lat="56.8310131" lon="53.1390295"><time>2024-11-03T09:51:00.697</time></trkpt><trkpt lat="56.8310131" lon="53.1390295"><time>2024-11-03T09:51:00.983</time></trkpt><trkpt lat="56.8309588" lon="53.1390336"><time>2024-11-03T09:51:06.747</time></trkpt><trkpt lat="56.8309405" lon="53.1390268"><time>2024-11-03T09:51:07.930</time></trkpt><trkpt lat="56.8309036" lon="53.1389620"><time>2024-11-03T09:51:39.723</time></trkpt><trkpt lat="56.8308954" lon="53.1388804"><time>2024-11-03T09:51:42.710</time></trkpt><trkpt lat="56.8309033" lon="53.1387806"><time>2024-11-03T09:51:47.750</time></trkpt><trkpt lat="56.8309051" lon="53.1386844"><time>2024-11-03T09:51:51.720</time></trkpt><trkpt lat="56.8308748" lon="53.1386095"><time>2024-11-03T09:51:55.713</time></trkpt><trkpt lat="56.8308698" lon="53.1385274"><time>2024-11-03T09:51:58.717</time></trkpt><trkpt lat="56.8308817" lon="53.1384282"><time>2024-11-03T09:52:01.713</time></trkpt><trkpt lat="56.8308444" lon="53.1308359"><time>2024-11-03T09:57:55.793</time></trkpt><trkpt lat="56.8308367" lon="53.1308356"><time>2024-11-03T09:57:57.733</time></trkpt><trkpt lat="56.8308569" lon="53.1308012"><time>2024-11-03T09:58:00.453</time></trkpt><trkpt lat="56.8308670" lon="53.1309125"><time>2024-11-03T09:58:18.760</time></trkpt><trkpt lat="56.8308634" lon="53.1309078"><time>2024-11-03T09:58:19.930</time></trkpt><trkpt lat="56.8309077" lon="53.1309276"><time>2024-11-03T09:58:32.720</time></trkpt><trkpt lat="56.8309572" lon="53.1309502"><time>2024-11-03T09:58:37.717</time></trkpt><trkpt lat="56.8309983" lon="53.1310285"><time>2024-11-03T09:58:42.720</time></trkpt><trkpt lat="56.8310453" lon="53.1310726"><time>2024-11-03T09:58:47.750</time></trkpt><trkpt lat="56.8310873" lon="53.1310263"><time>2024-11-03T09:58:51.720</time></trkpt><trkpt lat="56.8311417" lon="53.1309873"><time>2024-11-03T09:58:55.713</time></trkpt><trkpt lat="56.8311867" lon="53.1309854"><time>2024-11-03T09:58:58.717</time></trkpt><trkpt lat="56.8312410" lon="53.1309517"><time>2024-11-03T09:59:02.717</time></trkpt><trkpt lat="56.8312963" lon="53.1309132"><time>2024-11-03T09:59:06.717</time></trkpt><trkpt lat="56.8347220" lon="53.1268482"><time>2024-11-03T10:14:20.277</time></trkpt><trkpt lat="56.8348345" lon="53.1271047"><time>2024-11-03T10:14:22.173</time></trkpt><trkpt lat="56.8347597" lon="53.1268506"><time>2024-11-03T10:14:22.713</time></trkpt><trkpt lat="56.8347033" lon="53.1268475"><time>2024-11-03T10:14:24.707</time></trkpt></trkseg></trk></gpx>